createdAt,value
2023-05-19T00:02:15.040Z,74.35
2023-05-19T00:03:44.009Z,74.35
2023-05-19T00:05:12.999Z,74.35
2023-05-19T00:09:29.460Z,74.66
2023-05-19T00:11:27.936Z,74.76
2023-05-19T00:12:57.706Z,75.27
2023-05-19T00:15:59.439Z,75.82
2023-05-19T00:19:30.848Z,75.78
2023-05-19T00:21:29.186Z,75.89
2023-05-19T00:24:00.303Z,76.12
2023-05-19T00:28:20.595Z,76.33
2023-05-19T00:31:54.389Z,76.74
2023-05-19T00:33:23.236Z,77.04
2023-05-19T00:36:19.095Z,76.94
2023-05-19T00:38:22.734Z,76.64
2023-05-19T00:42:20.464Z,76.94
2023-05-19T00:50:36.543Z,77.90
2023-05-19T00:56:02.845Z,77.70
2023-05-19T00:57:34.663Z,77.90
2023-05-19T00:59:03.515Z,78.20
2023-05-19T01:00:32.661Z,78.00
2023-05-19T01:03:59.899Z,78.41
2023-05-19T01:05:31.553Z,78.31
2023-05-19T01:08:50.595Z,78.52
2023-05-19T01:12:28.765Z,78.72
2023-05-19T01:19:37.340Z,79.37
2023-05-19T01:24:34.972Z,79.68
2023-05-19T01:26:35.612Z,79.68
2023-05-19T01:28:08.481Z,79.68
2023-05-19T01:30:24.214Z,79.98
2023-05-19T01:33:52.470Z,79.98
2023-05-19T01:35:21.221Z,79.78
2023-05-19T01:37:51.707Z,80.19
2023-05-19T01:42:42.855Z,80.19
2023-05-19T01:44:43.570Z,79.98
2023-05-19T01:47:16.205Z,80.12
2023-05-19T01:52:10.949Z,80.12
2023-05-19T01:55:42.952Z,80.33
2023-05-19T02:00:08.255Z,80.53
2023-05-19T02:02:39.032Z,80.53
2023-05-19T02:03:38.959Z,80.53
2023-05-19T02:04:39.018Z,80.74
2023-05-19T02:05:38.920Z,80.74
2023-05-19T02:08:06.316Z,81.15
2023-05-19T02:11:34.503Z,81.59
2023-05-19T02:14:36.886Z,81.18
2023-05-19T02:23:10.805Z,81.29
2023-05-19T02:27:12.020Z,81.29
2023-05-19T02:28:43.916Z,81.18
2023-05-19T02:30:41.698Z,81.18
2023-05-19T02:32:14.583Z,80.98
2023-05-19T02:34:20.040Z,81.08
2023-05-19T02:36:46.984Z,81.38
2023-05-19T02:38:16.488Z,81.22
2023-05-19T02:40:46.358Z,81.52
2023-05-19T02:44:11.060Z,81.12
2023-05-19T02:45:40.377Z,81.01
2023-05-19T02:47:12.320Z,81.01
2023-05-19T02:49:13.207Z,81.32
2023-05-19T02:51:14.353Z,81.12
2023-05-19T02:56:49.492Z,81.84
2023-05-19T02:58:18.583Z,81.84
2023-05-19T03:00:51.662Z,81.43
2023-05-19T03:05:26.367Z,81.32
2023-05-19T03:07:53.585Z,81.32
2023-05-19T03:10:27.111Z,80.91
2023-05-19T03:13:43.537Z,80.71
2023-05-19T03:15:12.202Z,80.71
2023-05-19T03:17:13.191Z,80.81
2023-05-19T03:18:41.942Z,80.71
2023-05-19T03:20:41.571Z,80.60
2023-05-19T03:23:09.837Z,80.71
2023-05-19T03:24:38.849Z,80.81
2023-05-19T03:27:15.164Z,80.85
2023-05-19T03:32:58.897Z,80.95
2023-05-19T03:36:03.929Z,80.95
2023-05-19T03:37:32.870Z,80.85
2023-05-19T03:39:54.535Z,80.74
2023-05-19T03:42:44.587Z,81.15
2023-05-19T03:45:12.378Z,80.95
2023-05-19T03:47:09.844Z,81.05
2023-05-19T03:52:08.592Z,81.26
2023-05-19T03:53:18.455Z,81.15
2023-05-19T03:59:26.765Z,80.95
2023-05-19T04:00:59.426Z,80.95
2023-05-19T04:07:50.197Z,80.64
2023-05-19T04:09:26.533Z,80.54
2023-05-19T04:13:13.201Z,80.64
2023-05-19T04:15:14.284Z,80.54
2023-05-19T04:19:03.302Z,80.44
2023-05-19T04:26:22.331Z,80.09
2023-05-19T04:28:13.211Z,79.99
2023-05-19T04:29:21.802Z,79.89
2023-05-19T04:31:11.231Z,79.79
2023-05-19T04:32:40.490Z,79.58
2023-05-19T04:34:30.467Z,79.58
2023-05-19T04:35:59.497Z,79.38
2023-05-19T04:38:48.153Z,79.13
2023-05-19T04:40:37.910Z,79.03
2023-05-19T04:42:06.937Z,78.93
2023-05-19T04:43:35.873Z,78.83
2023-05-19T04:45:04.799Z,78.72
2023-05-19T04:46:34.761Z,78.72
2023-05-19T04:48:05.675Z,78.63
2023-05-19T04:50:05.609Z,78.42
2023-05-19T04:53:21.187Z,78.11
2023-05-19T04:56:30.086Z,77.76
2023-05-19T05:00:28.422Z,77.46
2023-05-19T05:02:56.300Z,76.95
2023-05-19T05:04:26.872Z,76.81
2023-05-19T05:06:25.103Z,76.30
2023-05-19T05:08:25.136Z,76.20
2023-05-19T05:12:16.483Z,75.59
2023-05-19T05:18:40.831Z,75.14
2023-05-19T05:21:14.119Z,75.10
2023-05-19T05:23:06.158Z,75.00
2023-05-19T05:24:59.505Z,74.69
2023-05-19T05:26:30.894Z,74.80
2023-05-19T05:28:17.179Z,74.59
2023-05-19T05:29:53.326Z,74.35
2023-05-19T05:31:50.569Z,74.05
2023-05-19T05:37:17.030Z,73.13
2023-05-19T05:39:41.365Z,73.23
2023-05-19T05:42:58.087Z,73.03
2023-05-19T05:44:31.796Z,73.03
2023-05-19T05:46:27.001Z,72.72
2023-05-19T05:48:27.441Z,72.48
2023-05-19T05:50:50.998Z,72.17
2023-05-19T05:57:13.890Z,71.43
2023-05-19T05:59:37.358Z,71.29
2023-05-19T06:04:20.063Z,70.07
2023-05-19T06:05:50.904Z,70.17
2023-05-19T06:10:11.108Z,70.44
2023-05-19T06:12:12.836Z,69.70
2023-05-19T06:15:06.886Z,69.49
2023-05-19T06:19:40.887Z,68.68
2023-05-19T06:26:27.576Z,67.80
2023-05-19T06:28:30.874Z,67.60
2023-05-19T06:30:29.891Z,67.97
2023-05-19T06:31:57.793Z,68.07
2023-05-19T06:33:30.290Z,67.87
2023-05-19T06:36:22.139Z,67.43
2023-05-19T06:37:51.942Z,67.13
2023-05-19T06:39:40.714Z,66.11
2023-05-19T06:41:30.411Z,65.80
2023-05-19T06:43:28.972Z,65.67
2023-05-19T06:44:57.945Z,65.67
2023-05-19T06:46:18.957Z,65.67
2023-05-19T06:47:18.915Z,65.23
2023-05-19T06:48:28.808Z,64.83
2023-05-19T06:49:57.776Z,64.12
2023-05-19T06:52:17.517Z,63.71
2023-05-19T06:56:00.358Z,63.98
2023-05-19T06:58:20.784Z,63.95
2023-05-19T06:59:52.692Z,63.65
2023-05-19T07:02:09.963Z,63.45
2023-05-19T07:05:27.521Z,62.20
2023-05-19T07:09:51.908Z,61.87
2023-05-19T07:15:25.389Z,61.13
2023-05-19T07:17:14.584Z,60.93
2023-05-19T07:21:15.414Z,61.51
2023-05-19T07:24:46.204Z,60.06
2023-05-19T07:26:44.214Z,60.06
2023-05-19T07:28:13.578Z,60.26
2023-05-19T07:32:10.790Z,60.33
2023-05-19T07:33:42.301Z,59.83
2023-05-19T07:36:14.923Z,59.63
2023-05-19T07:38:13.256Z,59.12
2023-05-19T07:41:09.820Z,59.49
2023-05-19T07:43:11.282Z,59.47
2023-05-19T07:45:08.157Z,58.96
2023-05-19T07:46:39.505Z,58.45
2023-05-19T07:48:11.784Z,59.27
2023-05-19T07:49:43.637Z,58.36
2023-05-19T07:51:15.916Z,57.24
2023-05-19T07:53:16.617Z,57.82
2023-05-19T07:54:45.320Z,57.92
2023-05-19T07:56:46.495Z,57.72
2023-05-19T07:59:16.650Z,57.42
2023-05-19T08:00:45.779Z,56.81
2023-05-19T08:03:12.641Z,56.07
2023-05-19T08:07:42.752Z,54.83
2023-05-19T08:13:54.822Z,53.70
2023-05-19T08:16:56.629Z,52.47
2023-05-19T08:18:28.400Z,53.27
2023-05-19T08:20:29.275Z,53.45
2023-05-19T08:22:29.952Z,52.64
2023-05-19T08:24:33.770Z,51.73
2023-05-19T08:27:06.577Z,51.84
2023-05-19T08:29:36.326Z,51.33
2023-05-19T08:33:06.638Z,52.14
2023-05-19T08:35:07.413Z,50.40
2023-05-19T08:37:05.640Z,50.50
2023-05-19T08:38:54.322Z,50.57
2023-05-19T08:42:15.929Z,49.87
2023-05-19T08:43:44.831Z,50.48
2023-05-19T08:47:15.377Z,51.56
2023-05-19T08:49:16.149Z,50.15
2023-05-19T08:52:12.761Z,50.15
2023-05-19T08:54:10.404Z,49.73
2023-05-19T08:58:14.124Z,46.60
2023-05-19T09:00:17.574Z,45.47
2023-05-19T09:03:46.164Z,46.08
2023-05-19T09:06:13.081Z,46.58
2023-05-19T09:09:09.803Z,45.75
2023-05-19T09:19:51.257Z,44.02
2023-05-19T09:21:23.180Z,43.62
2023-05-19T09:25:43.379Z,45.33
2023-05-19T09:28:42.406Z,44.81
2023-05-19T09:30:40.178Z,45.59
2023-05-19T09:33:10.308Z,43.98
2023-05-19T09:36:41.025Z,43.18
2023-05-19T09:45:50.273Z,42.76
2023-05-19T09:49:50.018Z,42.55
2023-05-19T09:51:47.775Z,42.83
2023-05-19T09:53:48.663Z,43.74
2023-05-19T09:58:52.150Z,42.40
2023-05-19T10:06:28.136Z,41.57
2023-05-19T10:07:57.540Z,41.39
2023-05-19T10:09:27.479Z,42.60
2023-05-19T10:12:19.948Z,41.47
2023-05-19T10:14:20.741Z,40.57
2023-05-19T10:18:23.736Z,40.57
2023-05-19T10:20:50.568Z,40.55
2023-05-19T10:24:31.613Z,41.46
2023-05-19T10:26:03.621Z,39.73
2023-05-19T10:32:53.709Z,39.26
2023-05-19T10:34:23.441Z,39.76
2023-05-19T10:39:51.352Z,38.94
2023-05-19T10:43:15.285Z,37.62
2023-05-19T10:44:46.173Z,38.92
2023-05-19T10:46:13.081Z,37.30
2023-05-19T10:47:44.926Z,36.80
2023-05-19T11:00:17.697Z,36.49
2023-05-19T11:06:22.834Z,35.56
2023-05-19T11:13:10.225Z,37.68
2023-05-19T11:17:15.830Z,34.98
2023-05-19T11:19:42.633Z,35.17
2023-05-19T11:25:58.880Z,35.75
2023-05-19T11:28:57.541Z,35.97
2023-05-19T11:31:59.901Z,34.86
2023-05-19T11:34:00.600Z,36.25
2023-05-19T11:37:34.156Z,35.52
2023-05-19T11:39:03.834Z,35.11
2023-05-19T11:41:30.224Z,34.22
2023-05-19T11:43:57.126Z,34.61
2023-05-19T11:44:57.084Z,34.01
2023-05-19T11:45:57.146Z,34.53
2023-05-19T11:46:57.149Z,33.93
2023-05-19T11:48:57.891Z,34.76
2023-05-19T11:50:26.757Z,35.46
2023-05-19T11:51:55.700Z,35.16
2023-05-19T11:53:56.906Z,35.94
2023-05-19T11:55:28.733Z,34.22
2023-05-19T12:00:55.354Z,33.90
2023-05-19T12:02:24.216Z,34.50
2023-05-19T12:03:53.441Z,33.22
2023-05-19T12:09:28.293Z,33.63
2023-05-19T12:11:29.349Z,33.92
2023-05-19T12:12:58.128Z,32.41
2023-05-19T12:14:26.996Z,32.89
2023-05-19T12:15:56.093Z,33.07
2023-05-19T12:17:56.987Z,33.45
2023-05-19T12:19:54.901Z,31.55
2023-05-19T12:21:57.138Z,31.65
2023-05-19T12:26:29.215Z,34.18
2023-05-19T12:30:29.325Z,32.95
2023-05-19T12:32:56.079Z,31.36
2023-05-19T12:34:24.882Z,30.27
2023-05-19T12:36:22.748Z,30.40
2023-05-19T12:40:28.412Z,31.63
2023-05-19T12:47:03.068Z,30.93
2023-05-19T12:53:04.096Z,29.99
2023-05-19T13:05:30.937Z,30.53
2023-05-19T13:09:02.165Z,31.81
2023-05-19T13:10:31.317Z,32.03
2023-05-19T13:12:32.202Z,32.92
2023-05-19T13:15:01.872Z,32.81
2023-05-19T13:16:59.814Z,32.39
2023-05-19T13:18:57.532Z,32.18
2023-05-19T13:21:56.269Z,31.74
2023-05-19T13:23:57.316Z,31.32
2023-05-19T13:25:26.055Z,30.53
2023-05-19T13:27:52.976Z,30.32
2023-05-19T13:29:51.192Z,29.14
2023-05-19T13:31:49.988Z,30.63
2023-05-19T13:34:16.657Z,30.15
2023-05-19T13:36:17.428Z,30.94
2023-05-19T13:39:35.866Z,30.94
2023-05-19T13:41:04.778Z,31.23
2023-05-19T13:44:52.173Z,30.97
2023-05-19T13:46:36.470Z,31.77
2023-05-19T13:51:22.698Z,31.67
2023-05-19T13:52:51.453Z,32.05
2023-05-19T13:58:45.978Z,31.24
2023-05-19T14:00:17.976Z,31.34
2023-05-19T14:01:49.947Z,30.35
2023-05-19T14:03:47.853Z,32.42
2023-05-19T14:08:54.721Z,30.99
2023-05-19T14:11:27.851Z,31.58
2023-05-19T14:13:33.787Z,32.28
2023-05-19T14:15:24.610Z,31.75
2023-05-19T14:18:52.969Z,31.26
2023-05-19T14:21:25.848Z,31.45
2023-05-19T14:24:53.775Z,31.24
2023-05-19T14:30:46.556Z,31.09
2023-05-19T14:45:55.547Z,31.87
2023-05-19T14:47:27.589Z,31.45
2023-05-19T14:53:31.593Z,32.29
2023-05-19T14:56:30.140Z,32.74
2023-05-19T14:59:05.888Z,33.88
2023-05-19T15:04:42.247Z,34.36
2023-05-19T15:11:12.465Z,34.76
2023-05-19T15:13:13.425Z,33.78
2023-05-19T15:20:13.753Z,33.72
2023-05-19T15:22:11.639Z,34.01
2023-05-19T15:24:09.377Z,34.31
2023-05-19T15:26:39.279Z,34.69
2023-05-19T15:30:41.761Z,33.76
2023-05-19T15:33:07.356Z,34.15
2023-05-19T15:35:05.345Z,33.45
2023-05-19T15:38:59.908Z,33.05
2023-05-19T15:43:03.601Z,33.47
2023-05-19T15:46:02.724Z,33.45
2023-05-19T15:48:03.657Z,33.65
2023-05-19T15:51:31.182Z,34.33
2023-05-19T15:53:00.457Z,33.83
2023-05-19T15:56:24.738Z,33.23
2023-05-19T15:58:25.691Z,34.15
2023-05-19T16:01:52.956Z,34.06
2023-05-19T16:03:20.639Z,33.98
2023-05-19T16:05:50.192Z,34.30
2023-05-19T16:07:48.044Z,34.39
2023-05-19T16:09:16.871Z,34.30
2023-05-19T16:11:17.706Z,34.71
2023-05-19T16:12:17.727Z,34.21
2023-05-19T16:13:17.683Z,34.41
2023-05-19T16:14:17.708Z,34.51
2023-05-19T16:15:49.529Z,34.41
2023-05-19T16:23:18.852Z,34.89
2023-05-19T16:24:47.665Z,33.80
2023-05-19T16:27:53.718Z,33.31
2023-05-19T16:29:22.684Z,33.42
2023-05-19T16:32:29.273Z,33.91
2023-05-19T16:34:30.758Z,34.01
2023-05-19T16:36:56.865Z,34.23
2023-05-19T16:39:32.439Z,34.23
2023-05-19T16:42:34.366Z,34.33
2023-05-19T16:44:35.160Z,34.43
2023-05-19T16:49:10.196Z,34.55
2023-05-19T16:54:44.268Z,34.53
2023-05-19T16:56:42.011Z,33.93
2023-05-19T16:58:41.039Z,33.75
2023-05-19T17:00:16.014Z,33.95
2023-05-19T17:03:14.739Z,34.96
2023-05-19T17:04:14.584Z,34.56
2023-05-19T17:05:14.603Z,34.26
2023-05-19T17:06:14.585Z,34.06
2023-05-19T17:08:15.312Z,34.38
2023-05-19T17:11:14.028Z,34.56
2023-05-19T17:14:30.552Z,34.28
2023-05-19T17:15:59.786Z,34.36
2023-05-19T17:19:24.976Z,33.98
2023-05-19T17:21:36.071Z,34.16
2023-05-19T17:26:08.324Z,34.28
2023-05-19T17:28:10.741Z,33.70
2023-05-19T17:29:42.662Z,34.19
2023-05-19T17:32:11.422Z,35.49
2023-05-19T17:34:32.246Z,35.10
2023-05-19T17:44:08.566Z,36.61
2023-05-19T17:46:57.253Z,37.51
2023-05-19T17:49:18.245Z,37.51
2023-05-19T17:51:19.608Z,38.91
2023-05-19T17:53:17.701Z,39.11
2023-05-19T17:56:51.601Z,37.31
2023-05-19T17:59:47.668Z,37.41
2023-05-19T18:03:47.754Z,37.81
2023-05-19T18:04:47.589Z,39.01
2023-05-19T18:05:47.647Z,37.51
2023-05-19T18:15:55.714Z,39.05
2023-05-19T18:17:26.746Z,38.75
2023-05-19T18:23:00.795Z,39.17
2023-05-19T18:25:58.394Z,39.47
2023-05-19T18:28:16.350Z,39.47
2023-05-19T18:30:15.882Z,39.69
2023-05-19T18:32:36.457Z,39.59
2023-05-19T18:36:56.017Z,40.21
2023-05-19T18:38:45.482Z,40.51
2023-05-19T18:42:39.364Z,40.53
2023-05-19T18:48:07.432Z,40.93
2023-05-19T18:53:35.303Z,41.23
2023-05-19T18:56:06.944Z,41.75
2023-05-19T18:57:54.246Z,41.45
2023-05-19T19:01:46.190Z,42.07
2023-05-19T19:06:23.710Z,41.97
2023-05-19T19:07:53.571Z,42.58
2023-05-19T19:13:25.737Z,43.20
2023-05-19T19:15:50.888Z,42.69
2023-05-19T19:18:21.073Z,42.90
2023-05-19T19:21:23.870Z,42.80
2023-05-19T19:23:21.870Z,43.10
2023-05-19T19:25:48.943Z,43.60
2023-05-19T19:27:49.804Z,43.42
2023-05-19T19:30:19.555Z,43.92
2023-05-19T19:31:49.561Z,43.62
2023-05-19T19:33:19.830Z,43.52
2023-05-19T19:37:18.176Z,44.55
2023-05-19T19:39:45.038Z,43.84
2023-05-19T19:42:47.874Z,44.95
2023-05-19T19:44:49.117Z,44.24
2023-05-19T19:49:27.335Z,44.77
2023-05-19T19:50:56.173Z,44.67
2023-05-19T19:52:54.049Z,45.00
2023-05-19T19:54:43.914Z,45.09
2023-05-19T19:55:51.804Z,45.79
2023-05-19T19:58:21.529Z,45.59
2023-05-19T20:01:48.161Z,45.62
2023-05-19T20:03:45.910Z,45.72
2023-05-19T20:06:18.496Z,45.72
2023-05-19T20:08:20.804Z,45.92
2023-05-19T20:17:49.910Z,46.14
2023-05-19T20:21:19.983Z,46.06
2023-05-19T20:25:32.735Z,46.37
2023-05-19T20:27:30.627Z,46.26
2023-05-19T20:29:31.455Z,46.77
2023-05-19T20:32:54.183Z,46.67
2023-05-19T20:34:21.355Z,46.49
2023-05-19T20:39:12.472Z,46.99
2023-05-19T20:40:41.150Z,46.89
2023-05-19T20:42:13.715Z,46.99
2023-05-19T20:46:00.968Z,47.80
2023-05-19T20:47:30.699Z,48.22
2023-05-19T20:50:00.414Z,48.93
2023-05-19T20:51:29.615Z,49.44
2023-05-19T21:02:34.110Z,53.12
2023-05-19T21:05:30.838Z,54.13
2023-05-19T21:07:28.913Z,54.23
2023-05-19T21:13:02.764Z,55.24
2023-05-19T21:14:34.517Z,55.67
2023-05-19T21:16:23.446Z,55.54
2023-05-19T21:19:36.513Z,55.87
2023-05-19T21:22:15.695Z,56.27
2023-05-19T21:32:18.582Z,56.88
2023-05-19T21:33:48.498Z,56.98
2023-05-19T21:37:08.117Z,57.09
2023-05-19T21:40:36.008Z,57.52
2023-05-19T21:44:38.628Z,57.62
2023-05-19T21:45:40.974Z,57.72
2023-05-19T21:46:36.654Z,57.82
2023-05-19T21:48:36.417Z,57.82
2023-05-19T21:50:36.250Z,57.82
2023-05-19T21:52:39.885Z,58.05
2023-05-19T21:56:18.049Z,58.56
2023-05-19T22:00:33.533Z,58.89
2023-05-19T22:02:32.620Z,58.78
2023-05-19T22:04:21.258Z,58.89
2023-05-19T22:10:01.594Z,58.89
2023-05-19T22:17:48.553Z,59.52
2023-05-19T22:22:19.910Z,59.63
2023-05-19T22:23:48.392Z,59.63
2023-05-19T22:25:21.230Z,59.63
2023-05-19T22:30:15.640Z,59.63
2023-05-19T22:31:49.441Z,59.72
2023-05-19T22:33:16.054Z,60.03
2023-05-19T22:35:35.040Z,60.13
2023-05-19T22:39:50.589Z,60.16
2023-05-19T22:41:18.788Z,60.46
2023-05-19T22:47:35.099Z,60.57
2023-05-19T22:53:21.230Z,61.17
2023-05-19T22:59:13.188Z,61.40
2023-05-19T23:02:55.832Z,61.60
2023-05-19T23:06:09.241Z,61.71
2023-05-19T23:07:36.339Z,61.71
2023-05-19T23:09:27.552Z,61.80
2023-05-19T23:14:13.660Z,61.71
2023-05-19T23:16:47.268Z,62.01
2023-05-19T23:19:46.000Z,62.21
2023-05-19T23:22:19.911Z,62.31
2023-05-19T23:30:51.278Z,62.62
2023-05-19T23:32:39.048Z,62.65
2023-05-19T23:34:29.933Z,62.75
2023-05-19T23:36:57.877Z,63.35
2023-05-19T23:41:17.864Z,63.56
2023-05-19T23:45:43.379Z,63.56
2023-05-19T23:51:59.440Z,64.20
2023-05-19T23:54:00.479Z,64.00
2023-05-19T23:55:30.540Z,63.86
2023-05-19T23:57:03.937Z,63.66
2023-05-19T23:58:31.894Z,63.66
